Brussels A320 at Brussels on Aug 24th 2019, burst tyre on landing

Last Update: August 26, 2019 / 11:14:45 GMT/Zulu time

Bookmark this article
Incident Facts

Date of incident
Aug 24, 2019

Classification
Incident

Flight number
SN-3802

Aircraft Registration
OO-TCV

Aircraft Type
Airbus A320

ICAO Type Designator
A320

Airport ICAO Code
EBBR

A Brussels Airlines Airbus A320-200, registration OO-TCV performing flight SN-3802 from Faro (Portugal) to Brussels (Belgium), landed on Brussels' runway 07L but burst a tyre on landing. The aircraft vacated the runway and taxied to the apron.

Brussels Airport reported the runway needed to be closed for about 45 minutes from 14:15Z to 15:00Z due to debris on the runway when an aircraft landing on runway 07L burst a tyre on landing. The subsequent two approaches went around, the runway was closed for cleaning.

Related NOTAM:
A2819/19 NOTAMN
Q) EBBU/QMRLC/IV/NBO/A /000/999/5054N00429E005
A) EBBR B) 1908241415 C) 1908241500 EST
E) RWY 07L/25R CLSD DUE TO DEBRIS ON THE RWY.

Metars:
EBBR 241550Z VRB02KT CAVOK 29/14 Q1019 NOSIG=
EBBR 241520Z 17006KT 140V200 CAVOK 29/13 Q1019 NOSIG=
EBBR 241450Z 12003KT 070V190 CAVOK 29/12 Q1019 NOSIG=
EBBR 241420Z 16004KT 070V240 CAVOK 29/14 Q1019 NOSIG=
EBBR 241350Z 16006KT 120V200 CAVOK 29/13 Q1019 NOSIG=
EBBR 241320Z 15006KT 100V190 CAVOK 29/12 Q1019 NOSIG=
EBBR 241250Z 15006KT 100V210 CAVOK 29/12 Q1020 NOSIG=
EBBR 241220Z 13005G16KT 080V180 CAVOK 29/12 Q1020 NOSIG=
EBBR 241150Z 09007KT 050V130 CAVOK 28/10 Q1020 NOSIG=
EBBR 241120Z 10005KT 060V160 CAVOK 28/10 Q1020 NOSIG=
Incident Facts

Date of incident
Aug 24, 2019

Classification
Incident

Flight number
SN-3802

Aircraft Registration
OO-TCV

Aircraft Type
Airbus A320

ICAO Type Designator
A320

Airport ICAO Code
EBBR

This article is published under license from Avherald.com. © of text by Avherald.com.
Article source

You can read 2 more free articles without a subscription.

Subscribe now and continue reading without any limits!

Are you a subscriber? Login
Subscribe

Read unlimited articles and receive our daily update briefing. Gain better insights into what is happening in commercial aviation safety.

Send tip

Support AeroInside by sending a small tip amount.

Related articles

Newest articles

Subscribe today

Are you researching aviation incidents? Get access to AeroInside Insights, unlimited read access and receive the daily newsletter.

Pick your plan and subscribe

Partner

Blockaviation logo

A new way to document and demonstrate airworthiness compliance and aircraft value. Find out more.

Virtual Speech logo

ELITE Simulation Solutions is a leading global provider of Flight Simulation Training Devices, IFR training software as well as flight controls and related services. Find out more.

AeroInside Blog
Popular aircraft
Airbus A320
Boeing 737-800
Boeing 737-800 MAX
Popular airlines
American Airlines
United
Delta
Air Canada
Lufthansa
British Airways